Time;durP1;ratioP1;P1;durP2;ratioP2;P2;SDS_P1;SDS_P2;PMS_P1;PMS_P2;Temp;Humidity;BMP_temperature;BMP_pressure;BME280_temperature;BME280_humidity;BME280_pressure;Samples;Min_cycle;Max_cycle;Signal;HPM_P1;HPM_P2
2022/07/02 10:33:21;;;;;;;;;;;;;;;31.98;39.32;99932.16;5176167;23;1661;-66
2022/07/02 10:35:50;;;;;;;;;;;;;;;31.97;39.63;99930.63;4955941;28;991;-66
2022/07/02 10:38:38;;;;;;;;;;;;;;;32.37;36.89;99919.16;4955939;28;1910;-65
2022/07/02 10:41:05;;;;;;;;;;;;;;;32.44;36.84;99920.59;4955936;28;818;-66
2022/07/02 10:43:35;;;;;;;;;;;;;;;32.31;37.02;99915.66;4955931;28;883;-66
2022/07/02 10:46:10;;;;;;;;;;;;;;;32.78;36.57;99922.72;4956018;28;811;-66
2022/07/02 10:48:58;;;;;;;;;;;;;;;33.20;33.70;99925.63;4955800;28;826;-66
2022/07/02 10:51:35;;;;;;;;;;;;;;;32.66;34.67;99919.31;4955810;28;836;-66
2022/07/02 10:54:03;;;;;;;;;;;;;;;32.41;35.31;99922.47;4955702;28;858;-66
2022/07/02 10:56:43;;;;;;;;;;;;;;;32.83;34.99;99921.81;4954682;29;1962;-66
2022/07/02 10:59:26;;;;;;;;;;;;;;;33.03;34.54;99920.28;4955518;28;1083;-66
2022/07/02 11:02:07;;;;;;;;;;;;;;;33.32;33.54;99921.16;4955490;28;799;-65
2022/07/02 11:04:34;;;;;;;;;;;;;;;33.90;33.79;99917.00;4955665;28;807;-66
2022/07/02 11:07:05;;;;;;;;;;;;;;;33.93;32.81;99921.63;4954468;29;1419;-66
2022/07/02 11:09:32;;;;;;;;;;;;;;;34.46;33.70;99919.56;4955492;28;815;-65
2022/07/02 11:15:32;;;;;;;;;;;;;;;35.41;32.27;99915.78;4955344;29;622;-66
2022/07/02 11:18:01;;;;;;;;;;;;;;;35.58;32.74;99915.94;4953942;29;1956;-66
2022/07/02 11:20:28;;;;;;;;;;;;;;;35.64;31.95;99923.66;4955304;28;859;-65
2022/07/02 11:22:56;;;;;;;;;;;;;;;35.23;31.87;99922.66;4955173;28;816;-66
2022/07/02 11:25:22;;;;;;;;;;;;;;;35.32;31.95;99920.00;4955154;28;905;-66
2022/07/02 11:27:57;;;;;;;;;;;;;;;35.47;32.95;99924.22;4955128;28;839;-65
2022/07/02 11:30:24;;;;;;;;;;;;;;;35.32;32.48;99914.25;4954993;28;863;-66
2022/07/02 11:32:51;;;;;;;;;;;;;;;35.51;32.53;99907.34;4954881;28;898;-66
2022/07/02 11:35:20;;;;;;;;;;;;;;;35.40;30.79;99922.88;4972690;28;1314;-66
2022/07/02 11:37:46;;;;;;;;;;;;;;;35.18;30.77;99919.41;4974413;28;1972;-67
2022/07/02 11:40:21;;;;;;;;;;;;;;;35.20;30.85;99915.97;4974182;28;858;-66
2022/07/02 11:42:51;;;;;;;;;;;;;;;35.70;30.48;99919.22;4974400;28;827;-65
2022/07/02 11:45:18;;;;;;;;;;;;;;;36.21;29.46;99928.13;4972819;28;933;-66
2022/07/02 11:48:00;;;;;;;;;;;;;;;36.29;29.15;99929.63;4973934;28;1119;-66
2022/07/02 11:50:36;;;;;;;;;;;;;;;36.37;28.20;99924.59;4974074;28;804;-65
2022/07/02 11:53:06;;;;;;;;;;;;;;;36.90;27.40;99922.81;4973954;28;886;-66
2022/07/02 11:55:32;;;;;;;;;;;;;;;37.38;27.77;99916.91;4974090;28;870;-65
2022/07/02 11:58:01;;;;;;;;;;;;;;;38.09;27.17;99918.56;4974055;28;1894;-66
2022/07/02 12:00:33;;;;;;;;;;;;;;;38.16;26.76;99920.56;4973680;28;843;-65
2022/07/02 12:03:11;;;;;;;;;;;;;;;37.84;27.10;99924.38;4974336;28;834;-67
2022/07/02 12:05:36;;;;;;;;;;;;;;;37.95;27.73;99923.84;4973723;28;862;-67
2022/07/02 12:23:20;;;;;;;;;;;;;;;39.06;24.67;99918.41;4973928;28;692;-67
2022/07/02 12:38:07;;;;;;;;;;;;;;;40.09;24.05;99906.78;4962225;28;1973;-67
2022/07/02 12:40:36;;;;;;;;;;;;;;;39.97;23.74;99906.63;4973455;28;826;-67
2022/07/02 12:43:21;;;;;;;;;;;;;;;39.88;23.39;99915.31;4973148;28;858;-67
2022/07/02 12:45:48;;;;;;;;;;;;;;;40.05;22.87;99912.25;4972976;28;792;-67
2022/07/02 13:03:35;;;;;;;;;;;;;;;38.64;23.51;99904.94;4973033;28;689;-67
2022/07/02 13:06:04;;;;;;;;;;;;;;;38.36;24.10;99907.03;4972884;28;897;-67
2022/07/02 13:08:30;;;;;;;;;;;;;;;38.51;24.78;99908.97;4972836;28;791;-67
2022/07/02 13:23:09;;;;;;;;;;;;;;;38.07;23.37;99906.06;4972967;28;674;-66
2022/07/02 13:25:35;;;;;;;;;;;;;;;38.40;24.08;99910.25;4973005;28;839;-64
2022/07/02 13:28:03;;;;;;;;;;;;;;;38.74;23.77;99902.88;4972917;28;882;-64
2022/07/02 13:30:30;;;;;;;;;;;;;;;39.36;23.85;99901.94;4977117;28;815;-65
2022/07/02 13:32:56;;;;;;;;;;;;;;;39.59;23.47;99910.22;4976973;28;1018;-65
2022/07/02 13:35:23;;;;;;;;;;;;;;;38.97;23.53;99905.47;4976701;28;831;-65
2022/07/02 13:37:50;;;;;;;;;;;;;;;38.06;23.69;99916.84;4976079;28;1963;-64
2022/07/02 13:40:17;;;;;;;;;;;;;;;37.61;24.62;99906.53;4976427;28;862;-64
2022/07/02 13:42:44;;;;;;;;;;;;;;;37.30;26.11;99903.91;4976229;28;793;-64
2022/07/02 13:45:11;;;;;;;;;;;;;;;36.85;26.39;99906.53;4976297;28;806;-64
2022/07/02 13:47:38;;;;;;;;;;;;;;;36.03;27.08;99904.94;4974957;28;1229;-64
2022/07/02 13:50:07;;;;;;;;;;;;;;;35.57;28.00;99908.69;4976165;28;913;-64
2022/07/02 13:52:33;;;;;;;;;;;;;;;35.37;28.73;99901.78;4976646;28;799;-65
2022/07/02 13:55:00;;;;;;;;;;;;;;;35.27;28.78;99903.72;4976845;28;759;-64
2022/07/02 14:09:51;;;;;;;;;;;;;;;34.03;29.97;99907.50;4975907;28;614;-64
2022/07/02 14:15:21;;;;;;;;;;;;;;;34.14;30.40;99897.84;4975869;28;648;-64
2022/07/02 14:17:47;;;;;;;;;;;;;;;34.06;31.15;99905.63;4975739;28;1918;-64
2022/07/02 14:20:13;;;;;;;;;;;;;;;34.07;31.47;99907.91;4974583;28;1375;-64
2022/07/02 14:23:01;;;;;;;;;;;;;;;33.93;30.98;99904.41;4975903;28;854;-64
2022/07/02 14:25:28;;;;;;;;;;;;;;;32.99;32.52;99905.53;4975898;28;795;-66
2022/07/02 14:27:56;;;;;;;;;;;;;;;32.43;33.03;99913.31;4975890;28;763;-67
2022/07/02 14:42:47;;;;;;;;;;;;;;;31.03;37.51;99915.38;4987312;28;1138;-67
2022/07/02 14:45:14;;;;;;;;;;;;;;;30.77;37.88;99906.66;4996387;28;1161;-67
2022/07/02 14:47:41;;;;;;;;;;;;;;;30.65;38.60;99908.94;5014178;28;854;-67
2022/07/02 14:50:08;;;;;;;;;;;;;;;30.67;39.42;99909.16;5014038;28;870;-67
2022/07/02 15:04:45;;;;;;;;;;;;;;;30.96;40.38;99912.38;5014242;28;594;-67
2022/07/02 15:07:11;;;;;;;;;;;;;;;30.97;39.96;99917.56;5013801;28;873;-66
2022/07/02 15:21:57;;;;;;;;;;;;;;;30.40;40.56;99919.66;5013535;28;606;-67
2022/07/02 15:24:25;;;;;;;;;;;;;;;30.63;40.40;99920.88;5013507;28;846;-66
2022/07/02 15:26:52;;;;;;;;;;;;;;;30.64;40.48;99916.72;5013319;28;803;-66
2022/07/02 15:29:21;;;;;;;;;;;;;;;30.51;40.85;99911.72;5013338;28;807;-67
2022/07/02 15:31:48;;;;;;;;;;;;;;;30.29;40.47;99912.00;5013618;28;1054;-67
2022/07/02 15:34:14;;;;;;;;;;;;;;;30.19;41.28;99908.72;5013311;28;823;-67
2022/07/02 15:36:42;;;;;;;;;;;;;;;30.19;41.71;99907.97;5013108;28;1969;-67
2022/07/02 15:39:10;;;;;;;;;;;;;;;30.26;42.06;99918.78;5013311;28;863;-67
2022/07/02 15:41:37;;;;;;;;;;;;;;;30.05;42.11;99907.13;5012912;28;1400;-67
2022/07/02 15:44:03;;;;;;;;;;;;;;;29.85;41.93;99914.06;5013078;28;799;-67
2022/07/02 15:46:30;;;;;;;;;;;;;;;29.69;42.15;99912.91;5013344;28;819;-67
2022/07/02 15:48:57;;;;;;;;;;;;;;;29.66;42.25;99905.44;5012831;28;807;-67
2022/07/02 15:51:37;;;;;;;;;;;;;;;29.71;42.49;99916.81;5012211;28;846;-67
2022/07/02 15:54:25;;;;;;;;;;;;;;;29.73;42.65;99913.44;5012903;28;834;-67
2022/07/02 15:56:52;;;;;;;;;;;;;;;29.99;41.79;99920.66;4982487;28;1977;-67
2022/07/02 15:59:20;;;;;;;;;;;;;;;30.52;40.97;99923.91;5012851;28;807;-67
2022/07/02 16:01:53;;;;;;;;;;;;;;;31.12;40.11;99926.38;5012794;28;870;-67
2022/07/02 16:04:23;;;;;;;;;;;;;;;31.04;39.50;99928.31;5012694;28;885;-68
2022/07/02 16:06:51;;;;;;;;;;;;;;;30.83;39.31;99930.19;5012737;28;815;-66
2022/07/02 16:09:17;;;;;;;;;;;;;;;30.85;39.70;99922.63;5012679;28;829;-67
2022/07/02 16:11:44;;;;;;;;;;;;;;;30.82;39.65;99923.72;5012580;28;905;-66
2022/07/02 16:14:14;;;;;;;;;;;;;;;30.43;39.84;99925.06;5012631;28;866;-67
2022/07/02 16:16:41;;;;;;;;;;;;;;;29.98;40.02;99927.63;5012724;28;1949;-66
2022/07/02 16:19:08;;;;;;;;;;;;;;;29.73;40.01;99918.34;5012436;28;819;-66
2022/07/02 16:21:35;;;;;;;;;;;;;;;29.38;40.50;99917.91;5012381;28;865;-66
2022/07/02 16:24:02;;;;;;;;;;;;;;;29.04;41.37;99920.97;5012588;28;795;-66
2022/07/02 16:26:29;;;;;;;;;;;;;;;28.73;41.92;99919.38;4994625;28;1217;-67
2022/07/02 16:28:55;;;;;;;;;;;;;;;28.42;42.69;99924.19;4994655;28;1327;-66
2022/07/02 16:31:25;;;;;;;;;;;;;;;28.17;43.56;99928.94;5012327;28;921;-66
2022/07/02 16:33:59;;;;;;;;;;;;;;;27.92;44.03;99932.91;5012311;28;815;-66
2022/07/02 16:36:27;;;;;;;;;;;;;;;27.68;44.64;99928.53;5012131;28;1978;-66
2022/07/02 16:38:56;;;;;;;;;;;;;;;27.48;45.67;99929.59;4994671;28;1255;-66
2022/07/02 16:41:25;;;;;;;;;;;;;;;27.27;46.39;99926.28;5012053;28;883;-66
2022/07/02 16:43:54;;;;;;;;;;;;;;;27.08;46.88;99934.50;5011840;28;1494;-66
2022/07/02 16:46:21;;;;;;;;;;;;;;;26.95;47.20;99935.00;5012109;28;909;-66
2022/07/02 16:48:48;;;;;;;;;;;;;;;26.79;48.20;99945.00;4994240;28;1185;-66
2022/07/02 16:51:16;;;;;;;;;;;;;;;26.62;48.94;99944.19;5012085;28;873;-66
2022/07/02 16:53:44;;;;;;;;;;;;;;;26.47;49.71;99941.53;5012144;28;858;-66
2022/07/02 16:56:11;;;;;;;;;;;;;;;26.28;50.42;99944.03;5011826;28;799;-65
2022/07/02 16:58:38;;;;;;;;;;;;;;;26.11;50.74;99943.97;5011845;28;1934;-65
2022/07/02 17:01:05;;;;;;;;;;;;;;;25.93;50.97;99938.72;5011935;28;807;-65
2022/07/02 17:03:32;;;;;;;;;;;;;;;25.74;51.24;99939.09;5011623;28;874;-65
2022/07/02 17:05:58;;;;;;;;;;;;;;;25.56;51.39;99934.63;5011713;28;847;-64
2022/07/02 17:08:25;;;;;;;;;;;;;;;25.39;52.32;99940.16;5011761;28;823;-64
2022/07/02 17:13:36;;;;;;;;;;;;;;;25.00;53.80;99929.22;5011816;28;661;-63
2022/07/02 17:16:03;;;;;;;;;;;;;;;24.80;54.00;99932.91;4994108;28;1323;-63
2022/07/02 17:18:29;;;;;;;;;;;;;;;24.61;54.08;99935.25;5011684;28;1882;-63
2022/07/02 17:20:56;;;;;;;;;;;;;;;24.36;54.74;99930.31;4993977;28;886;-63
2022/07/02 17:23:23;;;;;;;;;;;;;;;24.11;55.27;99943.09;5011709;28;854;-63
2022/07/02 17:25:51;;;;;;;;;;;;;;;23.86;55.45;99941.75;5011806;28;850;-63
2022/07/02 17:28:18;;;;;;;;;;;;;;;23.62;56.22;99942.66;5011581;28;874;-63
2022/07/02 17:30:45;;;;;;;;;;;;;;;23.41;56.10;99945.41;4993809;28;827;-63
2022/07/02 17:36:13;;;;;;;;;;;;;;;22.98;57.83;99946.94;5011711;28;590;-63
2022/07/02 17:38:41;;;;;;;;;;;;;;;22.74;59.27;99956.22;5011881;28;1882;-63
2022/07/02 17:41:09;;;;;;;;;;;;;;;22.45;60.23;99959.78;5011813;28;823;-63
2022/07/02 17:43:37;;;;;;;;;;;;;;;22.22;60.67;99969.75;5010998;28;1359;-63
2022/07/02 17:46:04;;;;;;;;;;;;;;;22.08;61.00;99967.66;4993854;28;1193;-63
2022/07/02 17:48:31;;;;;;;;;;;;;;;21.98;60.90;99969.75;5011491;28;827;-63
2022/07/02 17:50:58;;;;;;;;;;;;;;;21.90;60.58;99966.50;5011476;28;803;-63
2022/07/02 17:53:25;;;;;;;;;;;;;;;21.86;60.55;99962.31;5011347;28;846;-64
2022/07/02 17:55:51;;;;;;;;;;;;;;;21.82;60.32;99966.06;5011233;28;896;-63
2022/07/02 17:58:19;;;;;;;;;;;;;;;21.79;60.52;99969.84;5011249;28;1914;-63
2022/07/02 18:00:47;;;;;;;;;;;;;;;21.68;61.43;99975.22;5011338;28;843;-63
2022/07/02 18:03:14;;;;;;;;;;;;;;;21.53;62.04;99971.50;5011368;28;858;-63
2022/07/02 18:05:39;;;;;;;;;;;;;;;21.49;62.04;99979.34;5011272;28;913;-63
2022/07/02 18:08:06;;;;;;;;;;;;;;;21.56;62.14;99979.78;5011328;28;783;-63
2022/07/02 18:10:33;;;;;;;;;;;;;;;21.54;62.04;99981.50;5011279;28;834;-63
2022/07/02 18:12:59;;;;;;;;;;;;;;;21.51;62.24;99982.47;5011403;28;827;-63
2022/07/02 18:15:26;;;;;;;;;;;;;;;21.44;62.38;99980.75;5013581;28;839;-63
2022/07/02 18:17:52;;;;;;;;;;;;;;;21.43;62.24;99975.63;4997181;28;1894;-63
2022/07/02 18:20:19;;;;;;;;;;;;;;;21.35;62.72;99981.53;5014940;28;850;-63
2022/07/02 18:22:46;;;;;;;;;;;;;;;21.18;63.30;99986.72;5014883;28;815;-63
2022/07/02 18:25:13;;;;;;;;;;;;;;;20.97;64.07;99999.75;5014612;28;851;-63
2022/07/02 18:27:40;;;;;;;;;;;;;;;20.79;64.90;100003.31;5014830;28;815;-63
2022/07/02 18:30:07;;;;;;;;;;;;;;;20.60;65.86;99999.72;5014695;28;866;-64
2022/07/02 18:32:33;;;;;;;;;;;;;;;20.50;66.20;100003.72;5014782;28;902;-64
2022/07/02 18:35:00;;;;;;;;;;;;;;;20.58;65.98;100001.44;5015137;28;763;-64
2022/07/02 18:37:26;;;;;;;;;;;;;;;20.65;65.84;100000.34;5014358;28;1949;-64
2022/07/02 18:39:53;;;;;;;;;;;;;;;20.51;66.50;100010.94;5014444;28;819;-64
2022/07/02 18:42:20;;;;;;;;;;;;;;;20.34;66.92;100018.84;5014011;28;1228;-64
2022/07/02 18:44:46;;;;;;;;;;;;;;;20.26;67.75;100030.84;5014489;28;842;-64
2022/07/02 18:47:13;;;;;;;;;;;;;;;20.34;67.27;100032.88;4996644;28;1157;-64
2022/07/02 18:49:40;;;;;;;;;;;;;;;20.41;66.47;100034.59;5014125;28;815;-64
2022/07/02 18:52:06;;;;;;;;;;;;;;;20.37;66.46;100029.13;4996514;28;1279;-64
2022/07/02 18:54:34;;;;;;;;;;;;;;;20.36;65.97;100024.00;5013949;28;835;-64
2022/07/02 18:57:02;;;;;;;;;;;;;;;20.28;65.86;100034.75;5013970;28;1906;-64
2022/07/02 18:59:29;;;;;;;;;;;;;;;20.26;65.58;100031.63;5013917;28;890;-64
2022/07/02 19:01:56;;;;;;;;;;;;;;;20.25;65.60;100037.69;5013859;28;835;-64
2022/07/02 19:04:22;;;;;;;;;;;;;;;20.21;65.36;100049.06;5013859;28;842;-64
2022/07/02 19:06:48;;;;;;;;;;;;;;;20.13;65.52;100048.56;5013853;28;819;-64
2022/07/02 19:09:14;;;;;;;;;;;;;;;20.05;65.99;100052.13;5013730;28;851;-63
2022/07/02 19:11:42;;;;;;;;;;;;;;;19.96;66.50;100055.69;5013709;28;850;-64
2022/07/02 19:14:09;;;;;;;;;;;;;;;19.97;66.44;100065.66;5013984;28;847;-64
2022/07/02 19:16:37;;;;;;;;;;;;;;;19.96;66.44;100061.28;5013470;28;1947;-63
2022/07/02 19:19:03;;;;;;;;;;;;;;;19.94;66.56;100067.34;5013640;28;859;-63
2022/07/02 19:21:30;;;;;;;;;;;;;;;19.95;66.59;100062.50;5013692;28;922;-63
2022/07/02 19:23:56;;;;;;;;;;;;;;;19.89;66.72;100064.38;4995805;28;1232;-63
2022/07/02 19:31:54;;;;;;;;;;;;;;;19.67;67.70;100075.59;5013556;28;929;-64
2022/07/02 19:34:20;;;;;;;;;;;;;;;19.63;68.10;100072.94;5013197;28;796;-63
2022/07/02 19:36:47;;;;;;;;;;;;;;;19.64;68.25;100074.50;5013211;28;1885;-63
2022/07/02 19:39:13;;;;;;;;;;;;;;;19.62;68.40;100071.38;5013191;28;883;-63
2022/07/02 19:41:39;;;;;;;;;;;;;;;19.59;68.64;100063.88;4995404;28;1272;-63
2022/07/02 19:44:06;;;;;;;;;;;;;;;19.53;68.77;100057.31;5013117;28;842;-64
2022/07/02 19:46:33;;;;;;;;;;;;;;;19.38;69.29;100057.06;4995482;28;1200;-63
2022/07/02 19:48:59;;;;;;;;;;;;;;;19.26;69.91;100053.06;5012994;28;830;-64
2022/07/02 19:51:26;;;;;;;;;;;;;;;19.20;70.12;100056.94;5012975;28;850;-63
2022/07/02 19:53:54;;;;;;;;;;;;;;;19.19;70.29;100056.16;5012918;28;866;-63
2022/07/02 19:56:20;;;;;;;;;;;;;;;19.14;70.53;100045.53;5012879;28;874;-63
2022/07/02 19:58:47;;;;;;;;;;;;;;;19.15;70.83;100049.88;5012843;28;1973;-63
2022/07/02 20:01:13;;;;;;;;;;;;;;;19.18;71.03;100048.97;4995151;28;1423;-63
2022/07/02 20:03:40;;;;;;;;;;;;;;;19.21;71.04;100036.09;5012834;28;897;-63
2022/07/02 20:06:07;;;;;;;;;;;;;;;19.21;71.09;100036.09;4995058;28;1326;-63
2022/07/02 20:08:34;;;;;;;;;;;;;;;19.15;71.36;100042.25;5012724;28;842;-63
2022/07/02 20:11:00;;;;;;;;;;;;;;;19.03;72.11;100045.91;5012700;28;865;-64
2022/07/02 20:13:26;;;;;;;;;;;;;;;18.90;72.83;100053.56;5012735;28;807;-63
2022/07/02 20:15:53;;;;;;;;;;;;;;;18.82;73.05;100050.25;5012536;28;879;-64
2022/07/02 20:18:19;;;;;;;;;;;;;;;18.68;73.62;100056.31;5012495;28;1890;-63
2022/07/02 20:20:46;;;;;;;;;;;;;;;18.62;74.27;100052.53;5012558;28;902;-64
2022/07/02 20:23:13;;;;;;;;;;;;;;;18.64;74.36;100050.81;5012257;28;874;-63
2022/07/02 20:25:39;;;;;;;;;;;;;;;18.75;74.30;100051.25;5012519;28;886;-64
2022/07/02 20:28:06;;;;;;;;;;;;;;;18.78;74.56;100055.19;5012345;28;834;-64
2022/07/02 20:30:33;;;;;;;;;;;;;;;18.76;75.05;100052.03;5012361;28;850;-64
2022/07/02 20:33:00;;;;;;;;;;;;;;;18.72;75.36;100056.97;5012686;28;1041;-64
2022/07/02 20:35:28;;;;;;;;;;;;;;;18.70;75.56;100051.06;5012246;28;842;-64
2022/07/02 20:37:55;;;;;;;;;;;;;;;18.70;75.69;100053.84;5011745;28;1918;-64
2022/07/02 20:40:22;;;;;;;;;;;;;;;18.71;75.79;100061.00;5012223;28;866;-64
2022/07/02 20:42:51;;;;;;;;;;;;;;;18.75;76.17;100056.06;5011848;28;1414;-64
2022/07/02 20:45:19;;;;;;;;;;;;;;;18.83;75.94;100054.63;5012363;28;807;-64
2022/07/02 20:47:46;;;;;;;;;;;;;;;18.85;75.91;100054.94;5012144;28;811;-64
2022/07/02 20:50:12;;;;;;;;;;;;;;;18.82;76.11;100063.47;5012001;28;808;-64
2022/07/02 20:52:39;;;;;;;;;;;;;;;18.87;75.88;100060.88;5011959;28;823;-64
2022/07/02 20:55:06;;;;;;;;;;;;;;;18.90;75.57;100050.78;5011870;28;874;-64
2022/07/02 20:57:33;;;;;;;;;;;;;;;18.90;75.83;100057.16;5011921;28;1907;-64
2022/07/02 21:00:01;;;;;;;;;;;;;;;18.94;76.14;100057.81;5011859;28;866;-64
2022/07/02 21:02:27;;;;;;;;;;;;;;;19.00;75.85;100055.22;5011939;28;859;-64
2022/07/02 21:04:54;;;;;;;;;;;;;;;19.07;75.33;100054.19;5009452;28;1333;-64
2022/07/02 21:07:20;;;;;;;;;;;;;;;19.06;75.32;100061.81;5011831;28;839;-64
2022/07/02 21:09:47;;;;;;;;;;;;;;;18.95;75.86;100064.22;5012011;28;855;-64
2022/07/02 21:12:13;;;;;;;;;;;;;;;18.77;76.64;100070.38;5011778;28;827;-64
2022/07/02 21:14:42;;;;;;;;;;;;;;;18.60;77.52;100066.97;5011733;28;783;-64
2022/07/02 21:17:08;;;;;;;;;;;;;;;18.47;78.38;100075.38;5011670;28;1949;-64
2022/07/02 21:19:35;;;;;;;;;;;;;;;18.36;79.29;100069.38;5011696;28;799;-64
2022/07/02 21:22:02;;;;;;;;;;;;;;;18.29;79.81;100066.81;5011748;28;807;-64
2022/07/02 21:24:28;;;;;;;;;;;;;;;18.22;80.36;100065.03;5011870;28;839;-64
2022/07/02 21:26:55;;;;;;;;;;;;;;;18.19;80.77;100067.94;5011637;28;826;-64
2022/07/02 21:29:22;;;;;;;;;;;;;;;18.14;81.01;100058.09;5011667;28;818;-64
2022/07/02 21:31:48;;;;;;;;;;;;;;;18.03;81.45;100061.22;5011842;28;1012;-64
2022/07/02 21:34:15;;;;;;;;;;;;;;;17.98;81.77;100067.38;5011723;28;807;-64
2022/07/02 21:36:41;;;;;;;;;;;;;;;17.88;82.17;100071.28;5011680;28;1886;-64
2022/07/02 21:39:08;;;;;;;;;;;;;;;17.82;82.39;100068.25;5011587;28;921;-64
2022/07/02 21:41:36;;;;;;;;;;;;;;;17.79;82.60;100066.31;5011711;28;862;-64
2022/07/02 21:44:04;;;;;;;;;;;;;;;17.75;82.98;100062.84;5011289;28;1238;-64
2022/07/02 21:46:31;;;;;;;;;;;;;;;17.68;83.16;100063.84;5011476;28;834;-64
2022/07/02 21:49:02;;;;;;;;;;;;;;;17.63;83.47;100053.22;5011656;28;834;-64
2022/07/02 21:51:33;;;;;;;;;;;;;;;17.64;83.80;100054.78;5015224;28;799;-64
2022/07/02 21:54:00;;;;;;;;;;;;;;;17.63;83.63;100050.44;5015221;28;827;-64
2022/07/02 21:56:27;;;;;;;;;;;;;;;17.60;83.90;100054.09;5015156;28;830;-64
2022/07/02 21:58:53;;;;;;;;;;;;;;;17.57;84.00;100054.22;5015026;28;1906;-64
2022/07/02 22:01:20;;;;;;;;;;;;;;;17.56;83.88;100053.44;5015047;28;815;-64
2022/07/02 22:03:49;;;;;;;;;;;;;;;17.53;83.77;100054.31;5014998;28;886;-64
2022/07/02 22:06:16;;;;;;;;;;;;;;;17.52;84.07;100047.19;5014920;28;905;-64
2022/07/02 22:08:42;;;;;;;;;;;;;;;17.49;84.13;100048.06;5015219;28;846;-64
2022/07/02 22:11:10;;;;;;;;;;;;;;;17.34;84.65;100056.84;5014850;28;882;-64
2022/07/02 22:13:40;;;;;;;;;;;;;;;17.22;85.20;100052.03;5014976;28;850;-64
2022/07/02 22:16:07;;;;;;;;;;;;;;;17.14;85.46;100059.03;5014764;28;901;-65
2022/07/02 22:18:35;;;;;;;;;;;;;;;17.10;85.44;100058.34;5014681;28;1886;-65
2022/07/02 22:21:01;;;;;;;;;;;;;;;17.05;85.27;100065.25;5014601;28;791;-64
2022/07/02 22:23:30;;;;;;;;;;;;;;;17.00;85.56;100053.81;5014710;28;879;-64
2022/07/02 22:25:58;;;;;;;;;;;;;;;16.98;85.78;100050.69;5014510;28;879;-65
2022/07/02 22:28:26;;;;;;;;;;;;;;;16.97;86.07;100052.69;5014596;28;823;-64
2022/07/02 22:30:52;;;;;;;;;;;;;;;16.98;85.92;100059.84;5014428;28;1007;-65
2022/07/02 22:33:20;;;;;;;;;;;;;;;16.99;85.90;100053.06;5014702;28;807;-64
2022/07/02 22:35:47;;;;;;;;;;;;;;;17.06;85.63;100049.28;4996864;28;1253;-65
2022/07/02 22:38:17;;;;;;;;;;;;;;;17.24;84.81;100055.16;5014415;28;1941;-64
2022/07/02 22:40:44;;;;;;;;;;;;;;;17.39;83.89;100049.94;4996853;28;1288;-65
2022/07/02 22:43:11;;;;;;;;;;;;;;;17.42;83.32;100048.28;5014278;28;1274;-65
2022/07/02 22:45:38;;;;;;;;;;;;;;;17.41;82.85;100043.91;5014332;28;792;-64
2022/07/02 22:48:08;;;;;;;;;;;;;;;17.40;82.97;100042.34;5014319;28;869;-65
2022/07/02 22:50:35;;;;;;;;;;;;;;;17.32;83.07;100036.94;5014080;28;867;-65
2022/07/02 22:53:01;;;;;;;;;;;;;;;17.28;82.79;100043.88;5014185;28;787;-65
2022/07/02 22:55:28;;;;;;;;;;;;;;;17.28;82.48;100038.28;5014070;28;795;-65
2022/07/02 22:57:54;;;;;;;;;;;;;;;17.20;82.74;100036.91;4996275;28;1914;-65
2022/07/02 23:00:21;;;;;;;;;;;;;;;17.10;82.82;100044.38;5013946;28;823;-64
2022/07/02 23:02:47;;;;;;;;;;;;;;;17.06;82.67;100047.25;5013939;28;803;-64
2022/07/02 23:05:14;;;;;;;;;;;;;;;17.16;82.73;100034.22;4994020;28;1304;-65
2022/07/02 23:07:40;;;;;;;;;;;;;;;17.26;82.89;100027.56;5014143;28;807;-65
2022/07/02 23:10:08;;;;;;;;;;;;;;;17.35;83.77;100024.91;5014090;28;906;-65
2022/07/02 23:12:34;;;;;;;;;;;;;;;17.43;84.15;100028.28;5013961;28;815;-65
2022/07/02 23:15:01;;;;;;;;;;;;;;;17.49;84.13;100028.50;5011527;28;1471;-65
2022/07/02 23:17:32;;;;;;;;;;;;;;;17.52;83.56;100024.81;5013855;28;1949;-65
2022/07/02 23:20:02;;;;;;;;;;;;;;;17.52;83.11;100027.63;5013516;28;829;-65
2022/07/02 23:22:29;;;;;;;;;;;;;;;17.57;81.93;100026.28;4996025;28;1193;-66
2022/07/02 23:24:59;;;;;;;;;;;;;;;17.62;81.21;100022.91;5013430;28;791;-65
2022/07/02 23:27:25;;;;;;;;;;;;;;;17.66;80.43;100015.22;5013534;28;862;-65
2022/07/02 23:29:53;;;;;;;;;;;;;;;17.68;79.49;100013.53;5013439;28;799;-65
2022/07/02 23:35:22;;;;;;;;;;;;;;;17.70;79.74;100027.84;5013372;28;680;-65
2022/07/02 23:37:49;;;;;;;;;;;;;;;17.67;80.38;100025.94;5013291;28;1890;-65
2022/07/02 23:40:16;;;;;;;;;;;;;;;17.60;80.92;100020.56;4995648;28;1319;-65
2022/07/02 23:42:42;;;;;;;;;;;;;;;17.52;81.59;100022.03;5013033;28;1287;-65
2022/07/02 23:45:10;;;;;;;;;;;;;;;17.45;81.85;100028.59;5013445;28;871;-65
2022/07/02 23:47:36;;;;;;;;;;;;;;;17.43;81.86;100022.69;5013110;28;838;-65
2022/07/02 23:50:03;;;;;;;;;;;;;;;17.43;81.94;100024.69;5013060;28;819;-65
2022/07/02 23:52:30;;;;;;;;;;;;;;;17.46;82.42;100023.81;5012957;28;866;-65
2022/07/02 23:54:58;;;;;;;;;;;;;;;17.45;82.80;100025.78;5013085;28;859;-65
2022/07/02 23:57:24;;;;;;;;;;;;;;;17.43;83.55;100027.47;5012876;28;1910;-66
2022/07/02 23:59:51;;;;;;;;;;;;;;;17.41;84.19;100018.75;5012842;28;629;-65
